Time;durP1;ratioP1;P1;durP2;ratioP2;P2;SDS_P1;SDS_P2;PMS_P1;PMS_P2;Temp;Humidity;BMP_temperature;BMP_pressure;BME280_temperature;BME280_humidity;BME280_pressure;Samples;Min_cycle;Max_cycle;Signal;HPM_P1;HPM_P2
2023/07/31 00:00:35;;;;;;;;;;;;;;;;;;5091756;27;19916;-68
2023/07/31 00:03:01;;;;;;;;;;;;;;;;;;5090993;28;20011;-67
2023/07/31 00:05:27;;;;;;;;;;;;;;;;;;5089948;28;19908;-67
2023/07/31 00:11:53;;;;;;;;;;;;;;;;;;5111698;27;20276;-67
2023/07/31 00:18:20;;;;;;;;;;;;;;;;;;5091081;27;19923;-67
2023/07/31 00:20:46;;;;;;;;;;;;;;;;;;5091685;28;20007;-68
2023/07/31 00:23:12;;;;;;;;;;;;;;;;;;5091439;28;19999;-68
2023/07/31 00:25:38;;;;;;;;;;;;;;;;;;5090848;28;19962;-68
2023/07/31 00:28:49;;;;;;;;;;;;;;;;;;5091404;28;19916;-67
2023/07/31 00:31:15;;;;;;;;;;;;;;;;;;5090932;28;19994;-68
2023/07/31 00:35:30;;;;;;;;;;;;;;;;;;5092114;28;19916;-68
2023/07/31 00:39:59;;;;;;;;;;;;;;;;;;5050977;28;19917;-67
2023/07/31 00:42:25;;;;;;;;;;;;;;;;;;5051286;28;19917;-68
2023/07/31 00:44:51;;;;;;;;;;;;;;;;;;5050584;28;19963;-68
2023/07/31 00:47:17;;;;;;;;;;;;;;;;;;5050950;28;19909;-68
2023/07/31 00:52:57;;;;;;;;;;;;;;;;;;5090891;27;19917;-67
2023/07/31 00:55:23;;;;;;;;;;;;;;;;;;5089963;28;20011;-68
2023/07/31 00:57:49;;;;;;;;;;;;;;;;;;5091371;28;19915;-67
2023/07/31 01:00:15;;;;;;;;;;;;;;;;;;5090908;28;19912;-67
2023/07/31 01:02:41;;;;;;;;;;;;;;;;;;5091298;28;19915;-67
2023/07/31 01:06:50;;;;;;;;;;;;;;;;;;5050973;28;19923;-68
2023/07/31 01:09:16;;;;;;;;;;;;;;;;;;5051297;28;19913;-68
2023/07/31 01:11:42;;;;;;;;;;;;;;;;;;5051047;28;20285;-67
2023/07/31 01:17:17;;;;;;;;;;;;;;;;;;5091406;27;19923;-67
2023/07/31 01:19:43;;;;;;;;;;;;;;;;;;5090007;28;19995;-67
2023/07/31 01:22:09;;;;;;;;;;;;;;;;;;5090794;28;19908;-67
2023/07/31 01:25:05;;;;;;;;;;;;;;;;;;5112089;27;19916;-67
2023/07/31 01:30:27;;;;;;;;;;;;;;;;;;5091977;27;20300;-67
2023/07/31 01:32:53;;;;;;;;;;;;;;;;;;5091340;28;20010;-68
2023/07/31 01:36:56;;;;;;;;;;;;;;;;;;5091681;28;19923;-68
2023/07/31 01:44:12;;;;;;;;;;;;;;;;;;5111674;27;19923;-67
2023/07/31 01:47:48;;;;;;;;;;;;;;;;;;5112382;27;19922;-68
2023/07/31 01:54:04;;;;;;;;;;;;;;;;;;5091953;27;19916;-68
2023/07/31 01:59:40;;;;;;;;;;;;;;;;;;5091361;27;20307;-68
2023/07/31 02:02:06;;;;;;;;;;;;;;;;;;5090836;28;19999;-67
2023/07/31 02:06:40;;;;;;;;;;;;;;;;;;5092107;27;19922;-68
2023/07/31 02:09:06;;;;;;;;;;;;;;;;;;5091027;28;20002;-67
2023/07/31 02:11:32;;;;;;;;;;;;;;;;;;5091360;28;20287;-69
2023/07/31 02:13:58;;;;;;;;;;;;;;;;;;5091266;28;19908;-69
2023/07/31 02:18:05;;;;;;;;;;;;;;;;;;5111395;27;19918;-68
2023/07/31 02:20:31;;;;;;;;;;;;;;;;;;5111786;28;19998;-68
2023/07/31 02:22:57;;;;;;;;;;;;;;;;;;5111590;28;19908;-68
2023/07/31 02:25:23;;;;;;;;;;;;;;;;;;5111151;28;19912;-67
2023/07/31 02:30:36;;;;;;;;;;;;;;;;;;5051075;28;19917;-68
2023/07/31 02:34:31;;;;;;;;;;;;;;;;;;5091659;27;20410;-67
2023/07/31 02:36:57;;;;;;;;;;;;;;;;;;5091334;28;19959;-67
2023/07/31 02:39:22;;;;;;;;;;;;;;;;;;5090900;28;19948;-67
2023/07/31 02:41:48;;;;;;;;;;;;;;;;;;5091236;28;19909;-68
2023/07/31 02:46:19;;;;;;;;;;;;;;;;;;5091070;27;19917;-68
2023/07/31 02:48:45;;;;;;;;;;;;;;;;;;5091279;28;20007;-68
2023/07/31 02:52:24;;;;;;;;;;;;;;;;;;5091229;27;19917;-68
2023/07/31 02:59:04;;;;;;;;;;;;;;;;;;5091146;27;19916;-68
2023/07/31 03:01:30;;;;;;;;;;;;;;;;;;5091323;28;19999;-68
2023/07/31 03:06:47;;;;;;;;;;;;;;;;;;5091228;28;19916;-68
2023/07/31 03:09:13;;;;;;;;;;;;;;;;;;5091357;28;19919;-69
2023/07/31 03:14:26;;;;;;;;;;;;;;;;;;5090991;27;19916;-69
2023/07/31 03:16:52;;;;;;;;;;;;;;;;;;5091449;28;20441;-70
2023/07/31 03:23:43;;;;;;;;;;;;;;;;;;5071952;28;19923;-68
2023/07/31 03:28:08;;;;;;;;;;;;;;;;;;5091046;27;19916;-68
2023/07/31 03:31:31;;;;;;;;;;;;;;;;;;5091671;28;19917;-67
2023/07/31 03:36:14;;;;;;;;;;;;;;;;;;5092093;28;19919;-67
2023/07/31 03:38:39;;;;;;;;;;;;;;;;;;5091302;28;20008;-68
2023/07/31 03:41:06;;;;;;;;;;;;;;;;;;5090765;28;19954;-68
2023/07/31 03:43:33;;;;;;;;;;;;;;;;;;5091140;28;19966;-68
2023/07/31 03:46:51;;;;;;;;;;;;;;;;;;5091547;28;19916;-68
2023/07/31 03:49:51;;;;;;;;;;;;;;;;;;5091557;27;20276;-68
2023/07/31 03:52:17;;;;;;;;;;;;;;;;;;5091251;28;19999;-67
2023/07/31 03:56:23;;;;;;;;;;;;;;;;;;5111359;27;20355;-67
2023/07/31 03:58:49;;;;;;;;;;;;;;;;;;5111691;28;20010;-67
2023/07/31 04:01:15;;;;;;;;;;;;;;;;;;5111823;28;20359;-69
2023/07/31 04:03:41;;;;;;;;;;;;;;;;;;5111162;28;19951;-68
2023/07/31 04:07:51;;;;;;;;;;;;;;;;;;5091670;27;19916;-67
2023/07/31 04:10:17;;;;;;;;;;;;;;;;;;5091109;28;20456;-67
2023/07/31 04:12:43;;;;;;;;;;;;;;;;;;5091250;28;19914;-67
2023/07/31 04:15:09;;;;;;;;;;;;;;;;;;5091376;28;19909;-67
2023/07/31 04:17:35;;;;;;;;;;;;;;;;;;5090714;28;20284;-67
2023/07/31 04:21:03;;;;;;;;;;;;;;;;;;5092126;27;20372;-67
2023/07/31 04:23:29;;;;;;;;;;;;;;;;;;5090897;28;20010;-67
2023/07/31 04:26:17;;;;;;;;;;;;;;;;;;5092141;27;19923;-67
2023/07/31 04:32:08;;;;;;;;;;;;;;;;;;5091162;27;20403;-67
2023/07/31 04:34:34;;;;;;;;;;;;;;;;;;5091330;28;20011;-67
2023/07/31 04:37:00;;;;;;;;;;;;;;;;;;5090821;28;19978;-67
2023/07/31 04:39:39;;;;;;;;;;;;;;;;;;5091790;27;19919;-67
2023/07/31 04:45:24;;;;;;;;;;;;;;;;;;5111405;27;20302;-67
2023/07/31 04:47:50;;;;;;;;;;;;;;;;;;5111663;28;20002;-67
2023/07/31 04:52:47;;;;;;;;;;;;;;;;;;5091043;27;19917;-68
2023/07/31 04:55:13;;;;;;;;;;;;;;;;;;5091509;28;20353;-68
2023/07/31 04:57:39;;;;;;;;;;;;;;;;;;5091231;28;19938;-68
2023/07/31 05:00:05;;;;;;;;;;;;;;;;;;5090867;28;19909;-68
2023/07/31 05:02:31;;;;;;;;;;;;;;;;;;5091072;28;20395;-68
2023/07/31 05:04:57;;;;;;;;;;;;;;;;;;5090682;28;19999;-68
2023/07/31 05:07:23;;;;;;;;;;;;;;;;;;5091101;28;19908;-68
2023/07/31 05:16:42;;;;;;;;;;;;;;;;;;5153267;27;19922;-68
2023/07/31 05:19:33;;;;;;;;;;;;;;;;;;5091416;27;19923;-68
2023/07/31 05:21:59;;;;;;;;;;;;;;;;;;5091267;28;20003;-67
2023/07/31 05:24:25;;;;;;;;;;;;;;;;;;5091361;28;19908;-67
2023/07/31 05:26:51;;;;;;;;;;;;;;;;;;5089409;28;19954;-68
2023/07/31 05:29:17;;;;;;;;;;;;;;;;;;5091119;28;19913;-68
2023/07/31 05:34:51;;;;;;;;;;;;;;;;;;5070792;28;20403;-68
2023/07/31 05:40:54;;;;;;;;;;;;;;;;;;5091272;27;19916;-68
2023/07/31 05:43:20;;;;;;;;;;;;;;;;;;5091498;28;20007;-68
2023/07/31 05:45:46;;;;;;;;;;;;;;;;;;5089966;28;19915;-68
2023/07/31 05:48:12;;;;;;;;;;;;;;;;;;5091241;28;20388;-68
2023/07/31 05:50:41;;;;;;;;;;;;;;;;;;5091178;28;20429;-68
2023/07/31 05:55:23;;;;;;;;;;;;;;;;;;5091378;27;19916;-67
2023/07/31 05:58:02;;;;;;;;;;;;;;;;;;5091841;27;19921;-68
2023/07/31 06:00:28;;;;;;;;;;;;;;;;;;5091649;28;20313;-67
2023/07/31 06:06:09;;;;;;;;;;;;;;;;;;5092199;27;20371;-67
2023/07/31 06:08:35;;;;;;;;;;;;;;;;;;5089588;28;20011;-68
2023/07/31 06:11:01;;;;;;;;;;;;;;;;;;5091225;28;20280;-67
2023/07/31 06:13:26;;;;;;;;;;;;;;;;;;5089900;28;19991;-68
2023/07/31 06:15:52;;;;;;;;;;;;;;;;;;5090711;28;19931;-67
2023/07/31 06:19:17;;;;;;;;;;;;;;;;;;5071692;28;19919;-69
2023/07/31 06:22:47;;;;;;;;;;;;;;;;;;5111692;27;20340;-68
2023/07/31 06:26:06;;;;;;;;;;;;;;;;;;5091513;27;20296;-68
2023/07/31 06:28:32;;;;;;;;;;;;;;;;;;5091476;28;20010;-68
2023/07/31 06:30:58;;;;;;;;;;;;;;;;;;5098972;28;19912;-67
2023/07/31 06:33:24;;;;;;;;;;;;;;;;;;5092113;28;19920;-68
2023/07/31 06:36:01;;;;;;;;;;;;;;;;;;5090872;28;19926;-68
2023/07/31 06:39:42;;;;;;;;;;;;;;;;;;5092126;28;19916;-67
2023/07/31 06:42:08;;;;;;;;;;;;;;;;;;5089968;28;19912;-67
2023/07/31 06:44:34;;;;;;;;;;;;;;;;;;5090824;28;19916;-68
2023/07/31 06:47:00;;;;;;;;;;;;;;;;;;5091211;28;19909;-68
2023/07/31 06:49:26;;;;;;;;;;;;;;;;;;5091363;28;19952;-68
2023/07/31 06:51:52;;;;;;;;;;;;;;;;;;5090593;28;19919;-68
2023/07/31 06:54:17;;;;;;;;;;;;;;;;;;5091328;28;19908;-67
2023/07/31 06:58:13;;;;;;;;;;;;;;;;;;5091385;27;19917;-68
2023/07/31 07:00:39;;;;;;;;;;;;;;;;;;5091539;28;20008;-67
2023/07/31 07:04:22;;;;;;;;;;;;;;;;;;5091893;28;19916;-67
2023/07/31 07:06:48;;;;;;;;;;;;;;;;;;5090887;28;20015;-67
2023/07/31 07:09:14;;;;;;;;;;;;;;;;;;5091184;28;20357;-68
2023/07/31 07:11:40;;;;;;;;;;;;;;;;;;5090899;28;20383;-68
2023/07/31 07:14:27;;;;;;;;;;;;;;;;;;5091527;27;19923;-68
2023/07/31 07:16:53;;;;;;;;;;;;;;;;;;5089937;28;19999;-68
2023/07/31 07:19:19;;;;;;;;;;;;;;;;;;5091118;28;20276;-67
2023/07/31 07:21:45;;;;;;;;;;;;;;;;;;5091198;28;20345;-68
2023/07/31 07:24:11;;;;;;;;;;;;;;;;;;5091091;28;19970;-67
2023/07/31 07:26:37;;;;;;;;;;;;;;;;;;5090608;28;19912;-67
2023/07/31 07:29:03;;;;;;;;;;;;;;;;;;5091155;28;19915;-68
2023/07/31 07:31:29;;;;;;;;;;;;;;;;;;5089664;28;19957;-68
2023/07/31 07:33:55;;;;;;;;;;;;;;;;;;5090592;28;20019;-68
2023/07/31 07:36:21;;;;;;;;;;;;;;;;;;5090856;28;19915;-68
2023/07/31 07:38:47;;;;;;;;;;;;;;;;;;5089502;28;19912;-68
2023/07/31 07:41:13;;;;;;;;;;;;;;;;;;5090446;28;19993;-68
2023/07/31 07:43:39;;;;;;;;;;;;;;;;;;5090737;28;19916;-68
2023/07/31 07:46:05;;;;;;;;;;;;;;;;;;5090720;28;19908;-68
2023/07/31 07:48:31;;;;;;;;;;;;;;;;;;5090371;28;19909;-68
2023/07/31 07:50:57;;;;;;;;;;;;;;;;;;5089443;28;19917;-67
2023/07/31 07:53:22;;;;;;;;;;;;;;;;;;5084777;28;19920;-68
2023/07/31 07:55:49;;;;;;;;;;;;;;;;;;5106117;28;20374;-66
2023/07/31 07:58:14;;;;;;;;;;;;;;;;;;5097697;28;19955;-66
2023/07/31 08:00:40;;;;;;;;;;;;;;;;;;5090071;28;19951;-67
2023/07/31 08:03:06;;;;;;;;;;;;;;;;;;5089004;28;19916;-67
2023/07/31 08:05:34;;;;;;;;;;;;;;;;;;5090046;28;19966;-71
2023/07/31 08:08:00;;;;;;;;;;;;;;;;;;5088093;28;19909;-72
2023/07/31 08:10:26;;;;;;;;;;;;;;;;;;5089512;28;19919;-73
2023/07/31 08:12:51;;;;;;;;;;;;;;;;;;5095342;28;19920;-70
2023/07/31 08:15:17;;;;;;;;;;;;;;;;;;5109890;28;19908;-72
2023/07/31 08:17:43;;;;;;;;;;;;;;;;;;5110014;28;19934;-71
2023/07/31 08:20:09;;;;;;;;;;;;;;;;;;5110342;28;19908;-71
2023/07/31 08:23:58;;;;;;;;;;;;;;;;;;5110136;27;19916;-70
2023/07/31 08:26:24;;;;;;;;;;;;;;;;;;5111271;28;20002;-70
2023/07/31 08:28:50;;;;;;;;;;;;;;;;;;5110125;28;19953;-72
2023/07/31 08:31:16;;;;;;;;;;;;;;;;;;5113208;28;19912;-71
2023/07/31 08:33:42;;;;;;;;;;;;;;;;;;5120222;28;19912;-72
2023/07/31 08:36:08;;;;;;;;;;;;;;;;;;5110913;28;20317;-71
2023/07/31 08:38:34;;;;;;;;;;;;;;;;;;5124938;28;21020;-67
2023/07/31 08:41:00;;;;;;;;;;;;;;;;;;5119740;28;19912;-66
2023/07/31 08:43:26;;;;;;;;;;;;;;;;;;5109881;28;20070;-66
2023/07/31 08:47:43;;;;;;;;;;;;;;;;;;5110787;27;19912;-68
2023/07/31 08:50:09;;;;;;;;;;;;;;;;;;5110813;28;20344;-67
2023/07/31 08:52:35;;;;;;;;;;;;;;;;;;5111132;28;19912;-67
2023/07/31 08:55:02;;;;;;;;;;;;;;;;;;5110980;28;19922;-67
2023/07/31 08:57:28;;;;;;;;;;;;;;;;;;5110895;28;19919;-68
2023/07/31 08:59:54;;;;;;;;;;;;;;;;;;5110876;28;19916;-68
2023/07/31 09:02:20;;;;;;;;;;;;;;;;;;5109857;28;19915;-68
2023/07/31 09:04:46;;;;;;;;;;;;;;;;;;5110307;28;19912;-67
2023/07/31 09:07:46;;;;;;;;;;;;;;;;;;5110626;27;19926;-67
2023/07/31 09:10:12;;;;;;;;;;;;;;;;;;5111417;28;20371;-66
2023/07/31 09:12:38;;;;;;;;;;;;;;;;;;5109726;28;19912;-67
2023/07/31 09:15:04;;;;;;;;;;;;;;;;;;5108539;28;19909;-66
2023/07/31 09:17:33;;;;;;;;;;;;;;;;;;5106457;28;19912;-68
2023/07/31 09:19:59;;;;;;;;;;;;;;;;;;5090545;28;19912;-66
2023/07/31 09:22:25;;;;;;;;;;;;;;;;;;5090562;28;20372;-66
2023/07/31 09:24:51;;;;;;;;;;;;;;;;;;5089944;28;20270;-67
2023/07/31 09:27:17;;;;;;;;;;;;;;;;;;5088319;28;19917;-68
2023/07/31 09:29:43;;;;;;;;;;;;;;;;;;5096079;28;19919;-66
2023/07/31 09:32:09;;;;;;;;;;;;;;;;;;5090825;28;19915;-66
2023/07/31 09:34:35;;;;;;;;;;;;;;;;;;5095651;28;19912;-67
2023/07/31 09:37:01;;;;;;;;;;;;;;;;;;5090170;28;20392;-67
2023/07/31 09:39:27;;;;;;;;;;;;;;;;;;5096757;28;20387;-69
2023/07/31 09:41:53;;;;;;;;;;;;;;;;;;5091535;28;20057;-66
2023/07/31 09:44:18;;;;;;;;;;;;;;;;;;5103022;28;19920;-66
2023/07/31 09:46:44;;;;;;;;;;;;;;;;;;5094628;28;19955;-66
2023/07/31 09:49:10;;;;;;;;;;;;;;;;;;5095518;28;19915;-67
2023/07/31 09:51:38;;;;;;;;;;;;;;;;;;5095416;28;20432;-67
2023/07/31 09:54:04;;;;;;;;;;;;;;;;;;5102617;28;20268;-67
2023/07/31 09:56:30;;;;;;;;;;;;;;;;;;5104342;28;19919;-67
2023/07/31 09:58:56;;;;;;;;;;;;;;;;;;5105542;28;19916;-67
2023/07/31 10:01:22;;;;;;;;;;;;;;;;;;5108539;28;19991;-67
2023/07/31 10:03:48;;;;;;;;;;;;;;;;;;5110354;28;19953;-67
2023/07/31 10:06:18;;;;;;;;;;;;;;;;;;5106902;28;19920;-66
2023/07/31 10:08:44;;;;;;;;;;;;;;;;;;5088284;28;20003;-67
2023/07/31 10:11:10;;;;;;;;;;;;;;;;;;5088272;28;19954;-67
2023/07/31 10:13:36;;;;;;;;;;;;;;;;;;5088155;28;19912;-67
2023/07/31 10:16:02;;;;;;;;;;;;;;;;;;5099692;28;19965;-67
2023/07/31 10:18:28;;;;;;;;;;;;;;;;;;5078316;28;19912;-67
2023/07/31 10:20:54;;;;;;;;;;;;;;;;;;5077122;28;19919;-66
2023/07/31 10:23:20;;;;;;;;;;;;;;;;;;5074510;28;19955;-66
2023/07/31 10:25:48;;;;;;;;;;;;;;;;;;5074085;28;19927;-67
2023/07/31 10:28:14;;;;;;;;;;;;;;;;;;5081459;28;19911;-68
2023/07/31 10:30:40;;;;;;;;;;;;;;;;;;5093876;28;20292;-67
2023/07/31 10:33:06;;;;;;;;;;;;;;;;;;5094308;28;20311;-68
2023/07/31 10:35:32;;;;;;;;;;;;;;;;;;5083159;28;20046;-66
2023/07/31 10:37:58;;;;;;;;;;;;;;;;;;5074746;28;20394;-67
2023/07/31 10:40:24;;;;;;;;;;;;;;;;;;5074652;28;20388;-66
2023/07/31 10:42:49;;;;;;;;;;;;;;;;;;5075561;28;19909;-67
2023/07/31 10:45:15;;;;;;;;;;;;;;;;;;5075717;28;19915;-67
2023/07/31 10:47:41;;;;;;;;;;;;;;;;;;5076569;28;19917;-69
2023/07/31 10:50:07;;;;;;;;;;;;;;;;;;5088142;28;20011;-69
2023/07/31 10:52:33;;;;;;;;;;;;;;;;;;5081525;28;19923;-69
2023/07/31 10:54:59;;;;;;;;;;;;;;;;;;5075878;28;19912;-69
2023/07/31 10:57:25;;;;;;;;;;;;;;;;;;5075407;28;19909;-70
2023/07/31 10:59:51;;;;;;;;;;;;;;;;;;5075752;28;19931;-70
2023/07/31 11:02:17;;;;;;;;;;;;;;;;;;5075733;28;20435;-70
2023/07/31 11:04:43;;;;;;;;;;;;;;;;;;5075222;28;19915;-70
2023/07/31 11:07:11;;;;;;;;;;;;;;;;;;5075356;28;19973;-69
2023/07/31 11:09:37;;;;;;;;;;;;;;;;;;5075550;28;19931;-70
2023/07/31 11:12:03;;;;;;;;;;;;;;;;;;5075333;28;20360;-69
2023/07/31 11:14:29;;;;;;;;;;;;;;;;;;5075439;28;20369;-68
2023/07/31 11:16:55;;;;;;;;;;;;;;;;;;5075315;28;20434;-68
2023/07/31 11:19:21;;;;;;;;;;;;;;;;;;5075182;28;20411;-70
2023/07/31 11:21:46;;;;;;;;;;;;;;;;;;5057360;28;20365;-69
2023/07/31 11:24:12;;;;;;;;;;;;;;;;;;5075473;28;20375;-69
2023/07/31 11:26:38;;;;;;;;;;;;;;;;;;5074726;28;20291;-69
2023/07/31 11:29:04;;;;;;;;;;;;;;;;;;5074326;28;19932;-69
2023/07/31 11:31:30;;;;;;;;;;;;;;;;;;5074919;28;19940;-69
2023/07/31 11:33:56;;;;;;;;;;;;;;;;;;5074611;28;19912;-70
2023/07/31 11:36:22;;;;;;;;;;;;;;;;;;5074805;28;19954;-68
2023/07/31 11:38:48;;;;;;;;;;;;;;;;;;5074601;28;19991;-68
2023/07/31 11:41:14;;;;;;;;;;;;;;;;;;5074912;28;19909;-69
2023/07/31 11:43:40;;;;;;;;;;;;;;;;;;5074795;28;19908;-69
2023/07/31 11:46:09;;;;;;;;;;;;;;;;;;5056506;28;19920;-69
2023/07/31 11:48:38;;;;;;;;;;;;;;;;;;5074783;28;19977;-70
2023/07/31 11:51:03;;;;;;;;;;;;;;;;;;5074360;28;19909;-70
2023/07/31 11:53:30;;;;;;;;;;;;;;;;;;5072870;28;19916;-70
2023/07/31 11:55:56;;;;;;;;;;;;;;;;;;5073168;28;19934;-70
2023/07/31 11:58:22;;;;;;;;;;;;;;;;;;5055179;28;20003;-71
2023/07/31 12:00:48;;;;;;;;;;;;;;;;;;5073011;28;19909;-70
2023/07/31 12:03:14;;;;;;;;;;;;;;;;;;5073068;28;20350;-70
2023/07/31 12:05:40;;;;;;;;;;;;;;;;;;5072830;28;19936;-70
2023/07/31 12:08:05;;;;;;;;;;;;;;;;;;5072186;28;20116;-70
2023/07/31 12:10:31;;;;;;;;;;;;;;;;;;5072635;28;19908;-70
2023/07/31 12:12:58;;;;;;;;;;;;;;;;;;5072373;28;19909;-70
2023/07/31 12:15:24;;;;;;;;;;;;;;;;;;5071888;28;19948;-70
2023/07/31 12:17:50;;;;;;;;;;;;;;;;;;5072235;28;19916;-70
2023/07/31 12:20:16;;;;;;;;;;;;;;;;;;5054257;28;19916;-70
2023/07/31 12:22:42;;;;;;;;;;;;;;;;;;5072926;28;19912;-70
2023/07/31 12:25:08;;;;;;;;;;;;;;;;;;5074040;28;19930;-70
2023/07/31 12:27:34;;;;;;;;;;;;;;;;;;5073952;28;20007;-70
2023/07/31 12:30:00;;;;;;;;;;;;;;;;;;5073779;28;20396;-70
2023/07/31 12:32:28;;;;;;;;;;;;;;;;;;5055944;28;20292;-71
2023/07/31 12:34:54;;;;;;;;;;;;;;;;;;5074535;28;19908;-71
2023/07/31 12:37:20;;;;;;;;;;;;;;;;;;5073589;28;20364;-71
2023/07/31 12:39:46;;;;;;;;;;;;;;;;;;5073886;28;19912;-71
2023/07/31 12:42:12;;;;;;;;;;;;;;;;;;5073253;28;19908;-71
2023/07/31 12:44:38;;;;;;;;;;;;;;;;;;5073867;28;19916;-71
2023/07/31 12:47:04;;;;;;;;;;;;;;;;;;5073685;28;19917;-71
2023/07/31 12:49:30;;;;;;;;;;;;;;;;;;5073474;28;20014;-70
2023/07/31 12:51:56;;;;;;;;;;;;;;;;;;5055802;28;19913;-70
2023/07/31 12:54:22;;;;;;;;;;;;;;;;;;5073782;28;19909;-70
2023/07/31 12:56:48;;;;;;;;;;;;;;;;;;5073304;28;19915;-70
2023/07/31 12:59:14;;;;;;;;;;;;;;;;;;5073781;28;19908;-70
2023/07/31 13:01:40;;;;;;;;;;;;;;;;;;5073938;28;20369;-69
2023/07/31 13:04:08;;;;;;;;;;;;;;;;;;5073264;28;19969;-70
2023/07/31 13:06:34;;;;;;;;;;;;;;;;;;5073324;28;19924;-70
2023/07/31 13:09:00;;;;;;;;;;;;;;;;;;5073726;28;19913;-70
2023/07/31 13:11:26;;;;;;;;;;;;;;;;;;5055242;28;19920;-69
2023/07/31 13:13:52;;;;;;;;;;;;;;;;;;5074180;28;20359;-69
2023/07/31 13:16:17;;;;;;;;;;;;;;;;;;5073543;28;19930;-69
2023/07/31 13:18:43;;;;;;;;;;;;;;;;;;5073160;28;19909;-69
2023/07/31 13:21:09;;;;;;;;;;;;;;;;;;5073497;28;19944;-69
2023/07/31 13:23:35;;;;;;;;;;;;;;;;;;5073611;28;19908;-69
2023/07/31 13:26:01;;;;;;;;;;;;;;;;;;5054934;28;19956;-69
2023/07/31 13:28:27;;;;;;;;;;;;;;;;;;5073572;28;19915;-69
2023/07/31 13:30:53;;;;;;;;;;;;;;;;;;5073476;28;19908;-69
2023/07/31 13:33:19;;;;;;;;;;;;;;;;;;5072931;28;19932;-69
2023/07/31 13:35:45;;;;;;;;;;;;;;;;;;5073263;28;19909;-69
2023/07/31 13:38:11;;;;;;;;;;;;;;;;;;5073335;28;19908;-70
2023/07/31 13:40:37;;;;;;;;;;;;;;;;;;5072967;28;19909;-69
2023/07/31 13:43:03;;;;;;;;;;;;;;;;;;5073311;28;20001;-69
2023/07/31 13:45:29;;;;;;;;;;;;;;;;;;5072852;28;19924;-69
2023/07/31 13:47:56;;;;;;;;;;;;;;;;;;5073275;28;20350;-69
2023/07/31 13:50:22;;;;;;;;;;;;;;;;;;5073637;28;19915;-70
2023/07/31 13:52:48;;;;;;;;;;;;;;;;;;5073756;28;19916;-70
2023/07/31 13:55:14;;;;;;;;;;;;;;;;;;5076939;28;20233;-69
2023/07/31 13:57:40;;;;;;;;;;;;;;;;;;5076910;28;19962;-70
2023/07/31 14:00:06;;;;;;;;;;;;;;;;;;5058550;28;20385;-70
2023/07/31 14:02:32;;;;;;;;;;;;;;;;;;5076870;28;19915;-71
2023/07/31 14:04:58;;;;;;;;;;;;;;;;;;5077095;28;19916;-70
2023/07/31 14:07:24;;;;;;;;;;;;;;;;;;5076095;28;19928;-70
2023/07/31 14:09:50;;;;;;;;;;;;;;;;;;5076825;28;19995;-70
2023/07/31 14:12:16;;;;;;;;;;;;;;;;;;5076649;28;19909;-70
2023/07/31 14:14:41;;;;;;;;;;;;;;;;;;5076179;28;20072;-70
2023/07/31 14:17:07;;;;;;;;;;;;;;;;;;5076796;28;19909;-70
2023/07/31 14:19:33;;;;;;;;;;;;;;;;;;5076771;28;19959;-71
2023/07/31 14:21:59;;;;;;;;;;;;;;;;;;5076081;28;19962;-70
2023/07/31 14:24:25;;;;;;;;;;;;;;;;;;5076451;28;19912;-70
2023/07/31 14:26:51;;;;;;;;;;;;;;;;;;5058274;28;19974;-70
2023/07/31 14:29:17;;;;;;;;;;;;;;;;;;5075943;28;19908;-71
2023/07/31 14:31:43;;;;;;;;;;;;;;;;;;5076736;28;20418;-70
2023/07/31 14:34:09;;;;;;;;;;;;;;;;;;5076245;28;20408;-70
2023/07/31 14:36:35;;;;;;;;;;;;;;;;;;5075778;28;19908;-70
2023/07/31 14:39:01;;;;;;;;;;;;;;;;;;5076313;28;19908;-70
2023/07/31 14:41:27;;;;;;;;;;;;;;;;;;5076316;28;19920;-70
2023/07/31 14:43:53;;;;;;;;;;;;;;;;;;5075779;28;19908;-71
2023/07/31 14:46:19;;;;;;;;;;;;;;;;;;5075992;28;19917;-71
2023/07/31 14:48:45;;;;;;;;;;;;;;;;;;5057618;28;19908;-71
2023/07/31 14:51:11;;;;;;;;;;;;;;;;;;5058025;28;20027;-70
2023/07/31 14:53:37;;;;;;;;;;;;;;;;;;5076314;28;20377;-70
2023/07/31 14:56:03;;;;;;;;;;;;;;;;;;5075510;28;19912;-69
2023/07/31 14:58:29;;;;;;;;;;;;;;;;;;5075791;28;20021;-70
2023/07/31 15:00:55;;;;;;;;;;;;;;;;;;5075774;28;19918;-70
2023/07/31 15:03:21;;;;;;;;;;;;;;;;;;5057280;28;20015;-70
2023/07/31 15:05:46;;;;;;;;;;;;;;;;;;5058114;28;19916;-70
2023/07/31 15:08:12;;;;;;;;;;;;;;;;;;5075656;28;19916;-70
2023/07/31 15:10:38;;;;;;;;;;;;;;;;;;5075397;28;19951;-70
2023/07/31 15:13:04;;;;;;;;;;;;;;;;;;5075573;28;19909;-71
2023/07/31 15:15:30;;;;;;;;;;;;;;;;;;5075522;28;19915;-70
2023/07/31 15:17:56;;;;;;;;;;;;;;;;;;5075106;28;19916;-71
2023/07/31 15:20:22;;;;;;;;;;;;;;;;;;5075369;28;19909;-70
2023/07/31 15:22:48;;;;;;;;;;;;;;;;;;5075620;28;19916;-70
2023/07/31 15:25:14;;;;;;;;;;;;;;;;;;5074780;28;19999;-70
2023/07/31 15:27:40;;;;;;;;;;;;;;;;;;5073939;28;19916;-70
2023/07/31 15:30:06;;;;;;;;;;;;;;;;;;5075143;28;19999;-70
2023/07/31 15:32:32;;;;;;;;;;;;;;;;;;5074778;28;19909;-71
2023/07/31 15:34:58;;;;;;;;;;;;;;;;;;5075067;28;19915;-70
2023/07/31 15:37:24;;;;;;;;;;;;;;;;;;5075001;28;20280;-70
2023/07/31 15:39:50;;;;;;;;;;;;;;;;;;5073383;28;19970;-70
2023/07/31 15:42:16;;;;;;;;;;;;;;;;;;5075301;28;20379;-70
2023/07/31 15:44:42;;;;;;;;;;;;;;;;;;5074934;28;20323;-70
2023/07/31 15:47:08;;;;;;;;;;;;;;;;;;5074385;28;19916;-70
2023/07/31 15:49:34;;;;;;;;;;;;;;;;;;5074634;28;19915;-71
2023/07/31 15:52:00;;;;;;;;;;;;;;;;;;5073109;28;19944;-70
2023/07/31 15:54:26;;;;;;;;;;;;;;;;;;5074766;28;19964;-70
2023/07/31 15:56:51;;;;;;;;;;;;;;;;;;5074701;28;20465;-70
2023/07/31 15:59:17;;;;;;;;;;;;;;;;;;5074180;28;20289;-70
2023/07/31 16:01:43;;;;;;;;;;;;;;;;;;5074510;28;19908;-70
2023/07/31 16:04:09;;;;;;;;;;;;;;;;;;5074498;28;19944;-69
2023/07/31 16:06:35;;;;;;;;;;;;;;;;;;5073805;28;19920;-70
2023/07/31 16:09:01;;;;;;;;;;;;;;;;;;5056432;28;19909;-69
2023/07/31 16:11:27;;;;;;;;;;;;;;;;;;5074293;28;19962;-69
2023/07/31 16:13:53;;;;;;;;;;;;;;;;;;5073958;28;19908;-69
2023/07/31 16:16:21;;;;;;;;;;;;;;;;;;5073806;28;19915;-69
2023/07/31 16:18:46;;;;;;;;;;;;;;;;;;5074240;28;20376;-69
2023/07/31 16:21:12;;;;;;;;;;;;;;;;;;5055879;28;20014;-69
2023/07/31 16:23:38;;;;;;;;;;;;;;;;;;5074112;28;19909;-69
2023/07/31 16:26:04;;;;;;;;;;;;;;;;;;5074054;28;19973;-70
2023/07/31 16:28:30;;;;;;;;;;;;;;;;;;5073735;28;19913;-69
2023/07/31 16:30:56;;;;;;;;;;;;;;;;;;5074339;28;20016;-71
2023/07/31 16:33:22;;;;;;;;;;;;;;;;;;5074350;28;19908;-70
2023/07/31 16:35:48;;;;;;;;;;;;;;;;;;5055673;28;19908;-70
2023/07/31 16:38:14;;;;;;;;;;;;;;;;;;5056017;28;20400;-69
2023/07/31 16:40:40;;;;;;;;;;;;;;;;;;5073955;28;20349;-69
2023/07/31 16:43:07;;;;;;;;;;;;;;;;;;5073498;28;20377;-70
2023/07/31 16:45:33;;;;;;;;;;;;;;;;;;5073790;28;19913;-69
2023/07/31 16:47:59;;;;;;;;;;;;;;;;;;5073772;28;19919;-70
2023/07/31 16:50:24;;;;;;;;;;;;;;;;;;5073432;28;20062;-70
2023/07/31 16:52:50;;;;;;;;;;;;;;;;;;5073751;28;20372;-69
2023/07/31 16:55:17;;;;;;;;;;;;;;;;;;5073677;28;20423;-69
2023/07/31 16:57:43;;;;;;;;;;;;;;;;;;5055697;28;19916;-69
2023/07/31 17:00:09;;;;;;;;;;;;;;;;;;5073651;28;19909;-69
2023/07/31 17:02:35;;;;;;;;;;;;;;;;;;5055495;28;20322;-69
2023/07/31 17:05:01;;;;;;;;;;;;;;;;;;5055671;28;19912;-69
2023/07/31 17:07:27;;;;;;;;;;;;;;;;;;5073417;28;19960;-71
2023/07/31 17:09:55;;;;;;;;;;;;;;;;;;5055243;28;19961;-69
2023/07/31 17:12:21;;;;;;;;;;;;;;;;;;5073679;28;19908;-69
2023/07/31 17:14:47;;;;;;;;;;;;;;;;;;5073523;28;20280;-69
2023/07/31 17:17:12;;;;;;;;;;;;;;;;;;5073179;28;20003;-71
2023/07/31 17:19:38;;;;;;;;;;;;;;;;;;5073528;28;19908;-69
2023/07/31 17:22:04;;;;;;;;;;;;;;;;;;5073455;28;19931;-69
2023/07/31 17:24:30;;;;;;;;;;;;;;;;;;5073113;28;19995;-70
2023/07/31 17:26:56;;;;;;;;;;;;;;;;;;5073567;28;19920;-69
2023/07/31 17:29:22;;;;;;;;;;;;;;;;;;5076951;28;19908;-70
2023/07/31 17:31:48;;;;;;;;;;;;;;;;;;5077017;28;20253;-70
2023/07/31 17:34:14;;;;;;;;;;;;;;;;;;5077385;28;20233;-70
2023/07/31 17:36:40;;;;;;;;;;;;;;;;;;5077243;28;19915;-70
2023/07/31 17:39:15;;;;;;;;;;;;;;;;;;5091002;27;19922;-69
2023/07/31 17:41:41;;;;;;;;;;;;;;;;;;5091383;28;20003;-69
2023/07/31 17:44:07;;;;;;;;;;;;;;;;;;5091205;28;19912;-69
2023/07/31 17:46:33;;;;;;;;;;;;;;;;;;5090764;28;19908;-69
2023/07/31 17:48:59;;;;;;;;;;;;;;;;;;5091134;28;19916;-69
2023/07/31 17:51:25;;;;;;;;;;;;;;;;;;5090996;28;19912;-69
2023/07/31 17:53:51;;;;;;;;;;;;;;;;;;5090599;28;19909;-69
2023/07/31 17:56:17;;;;;;;;;;;;;;;;;;5091411;28;19916;-69
2023/07/31 17:58:43;;;;;;;;;;;;;;;;;;5090368;28;20395;-69
2023/07/31 18:01:09;;;;;;;;;;;;;;;;;;5091048;28;20352;-69
2023/07/31 18:03:35;;;;;;;;;;;;;;;;;;5090742;28;19986;-69
2023/07/31 18:06:01;;;;;;;;;;;;;;;;;;5090525;28;19908;-69
2023/07/31 18:08:27;;;;;;;;;;;;;;;;;;5090698;28;19995;-69
2023/07/31 18:10:53;;;;;;;;;;;;;;;;;;5090608;28;19962;-69
2023/07/31 18:13:19;;;;;;;;;;;;;;;;;;5088879;28;19912;-69
2023/07/31 18:15:45;;;;;;;;;;;;;;;;;;5090826;28;19919;-69
2023/07/31 18:18:11;;;;;;;;;;;;;;;;;;5090442;28;20327;-70
2023/07/31 18:20:37;;;;;;;;;;;;;;;;;;5090176;28;19909;-69
2023/07/31 18:23:03;;;;;;;;;;;;;;;;;;5089093;28;20349;-70
2023/07/31 18:25:29;;;;;;;;;;;;;;;;;;5090438;28;19913;-69
2023/07/31 18:30:22;;;;;;;;;;;;;;;;;;5091818;27;19917;-70
2023/07/31 18:32:48;;;;;;;;;;;;;;;;;;5091219;28;19913;-70
2023/07/31 18:35:16;;;;;;;;;;;;;;;;;;5090740;28;19915;-71